sensor_id;sensor_type;location;lat;lon;timestamp;pressure;altitude;pressure_sealevel;temperature;humidity
11448;BME280;43755;49.736;8.734;2023-12-28T00:01:19;97813.16;;;7.78;70.39
11448;BME280;43755;49.736;8.734;2023-12-28T00:03:20;97806.97;;;7.79;68.76
11448;BME280;43755;49.736;8.734;2023-12-28T00:05:22;97796.19;;;7.87;69.93
11448;BME280;43755;49.736;8.734;2023-12-28T00:07:24;97799.84;;;7.83;69.72
11448;BME280;43755;49.736;8.734;2023-12-28T00:09:25;97804.41;;;7.78;69.73
11448;BME280;43755;49.736;8.734;2023-12-28T00:11:26;97815.88;;;7.77;69.81
11448;BME280;43755;49.736;8.734;2023-12-28T00:13:28;97812.81;;;7.89;68.00
11448;BME280;43755;49.736;8.734;2023-12-28T00:15:29;97814.41;;;7.93;67.40
11448;BME280;43755;49.736;8.734;2023-12-28T00:17:30;97800.59;;;7.87;68.85
11448;BME280;43755;49.736;8.734;2023-12-28T00:19:33;97819.28;;;7.79;69.07
11448;BME280;43755;49.736;8.734;2023-12-28T00:21:35;97816.50;;;7.59;70.92
11448;BME280;43755;49.736;8.734;2023-12-28T00:23:37;97818.59;;;7.74;69.01
11448;BME280;43755;49.736;8.734;2023-12-28T00:25:39;97813.69;;;7.63;69.83
11448;BME280;43755;49.736;8.734;2023-12-28T00:27:40;97826.03;;;7.61;69.92
11448;BME280;43755;49.736;8.734;2023-12-28T00:29:40;97818.78;;;7.68;69.93
11448;BME280;43755;49.736;8.734;2023-12-28T00:31:43;97816.69;;;7.53;72.88
11448;BME280;43755;49.736;8.734;2023-12-28T00:33:44;97812.91;;;7.35;72.21
11448;BME280;43755;49.736;8.734;2023-12-28T00:35:46;97814.09;;;7.51;71.29
11448;BME280;43755;49.736;8.734;2023-12-28T00:37:47;97814.19;;;7.48;72.69
11448;BME280;43755;49.736;8.734;2023-12-28T00:39:50;97818.47;;;7.52;70.18
11448;BME280;43755;49.736;8.734;2023-12-28T00:41:52;97820.53;;;7.69;68.24
11448;BME280;43755;49.736;8.734;2023-12-28T00:43:53;97831.06;;;7.69;68.65
11448;BME280;43755;49.736;8.734;2023-12-28T00:45:54;97814.59;;;7.62;69.22
11448;BME280;43755;49.736;8.734;2023-12-28T00:47:56;97824.75;;;7.73;68.96
11448;BME280;43755;49.736;8.734;2023-12-28T00:49:57;97816.44;;;7.85;67.07
11448;BME280;43755;49.736;8.734;2023-12-28T00:51:57;97802.97;;;7.94;66.00
11448;BME280;43755;49.736;8.734;2023-12-28T00:53:59;97806.94;;;8.06;65.66
11448;BME280;43755;49.736;8.734;2023-12-28T00:56:02;97797.94;;;8.11;63.63
11448;BME280;43755;49.736;8.734;2023-12-28T00:58:03;97812.03;;;8.10;64.22
11448;BME280;43755;49.736;8.734;2023-12-28T01:00:06;97812.00;;;8.12;65.45
11448;BME280;43755;49.736;8.734;2023-12-28T01:02:07;97806.03;;;8.07;64.26
11448;BME280;43755;49.736;8.734;2023-12-28T01:04:09;97805.84;;;8.11;65.21
11448;BME280;43755;49.736;8.734;2023-12-28T01:06:11;97822.78;;;8.04;65.00
11448;BME280;43755;49.736;8.734;2023-12-28T01:08:12;97813.16;;;8.03;64.21
11448;BME280;43755;49.736;8.734;2023-12-28T01:10:14;97817.56;;;8.03;65.68
11448;BME280;43755;49.736;8.734;2023-12-28T01:12:17;97839.25;;;8.11;64.79
11448;BME280;43755;49.736;8.734;2023-12-28T01:14:17;97841.03;;;8.10;64.67
11448;BME280;43755;49.736;8.734;2023-12-28T01:16:19;97842.97;;;8.05;65.86
11448;BME280;43755;49.736;8.734;2023-12-28T01:18:21;97825.91;;;8.15;63.24
11448;BME280;43755;49.736;8.734;2023-12-28T01:20:23;97835.00;;;8.07;68.22
11448;BME280;43755;49.736;8.734;2023-12-28T01:22:24;97825.81;;;8.18;63.37
11448;BME280;43755;49.736;8.734;2023-12-28T01:24:26;97829.00;;;8.27;65.21
11448;BME280;43755;49.736;8.734;2023-12-28T01:26:27;97828.72;;;8.36;61.48
11448;BME280;43755;49.736;8.734;2023-12-28T01:28:30;97813.19;;;8.51;61.20
11448;BME280;43755;49.736;8.734;2023-12-28T01:30:31;97815.09;;;8.48;62.90
11448;BME280;43755;49.736;8.734;2023-12-28T01:32:32;97821.19;;;8.48;63.18
11448;BME280;43755;49.736;8.734;2023-12-28T01:34:33;97814.09;;;8.50;62.97
11448;BME280;43755;49.736;8.734;2023-12-28T01:36:34;97816.22;;;8.64;62.03
11448;BME280;43755;49.736;8.734;2023-12-28T01:38:36;97811.97;;;8.60;63.16
11448;BME280;43755;49.736;8.734;2023-12-28T01:40:37;97817.41;;;8.79;60.85
11448;BME280;43755;49.736;8.734;2023-12-28T01:42:39;97818.44;;;8.75;62.17
11448;BME280;43755;49.736;8.734;2023-12-28T01:44:40;97814.91;;;8.76;61.44
11448;BME280;43755;49.736;8.734;2023-12-28T01:46:42;97816.69;;;8.75;61.94
11448;BME280;43755;49.736;8.734;2023-12-28T01:48:45;97834.13;;;8.78;61.83
11448;BME280;43755;49.736;8.734;2023-12-28T01:50:47;97836.63;;;8.82;61.91
11448;BME280;43755;49.736;8.734;2023-12-28T01:52:49;97845.28;;;8.86;62.84
11448;BME280;43755;49.736;8.734;2023-12-28T01:54:51;97846.19;;;8.85;63.71
11448;BME280;43755;49.736;8.734;2023-12-28T01:56:53;97838.94;;;8.90;61.78
11448;BME280;43755;49.736;8.734;2023-12-28T01:58:54;97839.81;;;8.90;61.51
11448;BME280;43755;49.736;8.734;2023-12-28T02:00:57;97848.78;;;8.86;64.89
11448;BME280;43755;49.736;8.734;2023-12-28T02:02:59;97847.03;;;8.85;63.03
11448;BME280;43755;49.736;8.734;2023-12-28T02:05:01;97846.19;;;8.85;64.71
11448;BME280;43755;49.736;8.734;2023-12-28T02:07:03;97858.63;;;8.81;63.78
11448;BME280;43755;49.736;8.734;2023-12-28T02:09:03;97858.50;;;8.84;64.59
11448;BME280;43755;49.736;8.734;2023-12-28T02:11:05;97870.75;;;8.87;62.86
11448;BME280;43755;49.736;8.734;2023-12-28T02:13:06;97860.88;;;8.92;63.56
11448;BME280;43755;49.736;8.734;2023-12-28T02:15:09;97862.81;;;8.87;64.13
11448;BME280;43755;49.736;8.734;2023-12-28T02:17:16;97874.09;;;8.90;63.44
11448;BME280;43755;49.736;8.734;2023-12-28T02:19:27;97860.56;;;8.99;62.66
11448;BME280;43755;49.736;8.734;2023-12-28T02:21:33;97872.53;;;9.08;62.43
11448;BME280;43755;49.736;8.734;2023-12-28T02:23:35;97857.75;;;9.04;64.47
11448;BME280;43755;49.736;8.734;2023-12-28T02:25:36;97863.66;;;9.11;62.29
11448;BME280;43755;49.736;8.734;2023-12-28T02:27:40;97863.19;;;9.23;61.56
11448;BME280;43755;49.736;8.734;2023-12-28T02:29:41;97857.03;;;9.22;63.57
11448;BME280;43755;49.736;8.734;2023-12-28T02:31:46;97862.31;;;9.22;65.10
11448;BME280;43755;49.736;8.734;2023-12-28T02:33:54;97862.66;;;9.13;66.26
11448;BME280;43755;49.736;8.734;2023-12-28T02:36:02;97860.34;;;9.06;64.49
11448;BME280;43755;49.736;8.734;2023-12-28T02:38:08;97860.09;;;9.12;64.19
11448;BME280;43755;49.736;8.734;2023-12-28T02:40:11;97871.22;;;8.96;66.65
11448;BME280;43755;49.736;8.734;2023-12-28T02:42:14;97880.81;;;8.99;65.41
11448;BME280;43755;49.736;8.734;2023-12-28T02:44:15;97883.88;;;8.88;70.42
11448;BME280;43755;49.736;8.734;2023-12-28T02:46:17;97882.78;;;8.71;72.47
11448;BME280;43755;49.736;8.734;2023-12-28T02:48:18;97891.94;;;8.60;73.31
11448;BME280;43755;49.736;8.734;2023-12-28T02:50:18;97909.13;;;8.47;77.97
11448;BME280;43755;49.736;8.734;2023-12-28T02:52:20;97902.84;;;8.25;76.38
11448;BME280;43755;49.736;8.734;2023-12-28T02:54:21;97901.19;;;8.22;73.06
11448;BME280;43755;49.736;8.734;2023-12-28T02:56:23;97904.13;;;8.13;78.74
11448;BME280;43755;49.736;8.734;2023-12-28T02:58:25;97906.16;;;8.07;78.11
11448;BME280;43755;49.736;8.734;2023-12-28T03:00:27;97894.00;;;8.01;77.43
11448;BME280;43755;49.736;8.734;2023-12-28T03:02:28;97907.13;;;8.03;71.89
11448;BME280;43755;49.736;8.734;2023-12-28T03:04:29;97892.53;;;7.94;74.99
11448;BME280;43755;49.736;8.734;2023-12-28T03:06:31;97895.16;;;7.94;77.48
11448;BME280;43755;49.736;8.734;2023-12-28T03:08:32;97892.06;;;7.81;76.55
11448;BME280;43755;49.736;8.734;2023-12-28T03:10:33;97900.88;;;7.80;77.57
11448;BME280;43755;49.736;8.734;2023-12-28T03:12:34;97901.09;;;7.74;79.07
11448;BME280;43755;49.736;8.734;2023-12-28T03:14:37;97899.28;;;7.76;77.60
11448;BME280;43755;49.736;8.734;2023-12-28T03:16:38;97902.84;;;7.74;78.81
11448;BME280;43755;49.736;8.734;2023-12-28T03:18:39;97903.06;;;7.68;80.17
11448;BME280;43755;49.736;8.734;2023-12-28T03:20:41;97912.56;;;7.72;82.48
11448;BME280;43755;49.736;8.734;2023-12-28T03:22:42;97906.25;;;7.77;84.80
11448;BME280;43755;49.736;8.734;2023-12-28T03:24:44;97906.25;;;7.77;85.02
11448;BME280;43755;49.736;8.734;2023-12-28T03:26:45;97907.16;;;7.76;87.16
11448;BME280;43755;49.736;8.734;2023-12-28T03:28:46;97899.19;;;7.78;89.49
11448;BME280;43755;49.736;8.734;2023-12-28T03:30:49;97901.00;;;7.77;92.05
11448;BME280;43755;49.736;8.734;2023-12-28T03:32:51;97904.53;;;7.76;91.30
11448;BME280;43755;49.736;8.734;2023-12-28T03:34:53;97890.75;;;7.68;91.44
11448;BME280;43755;49.736;8.734;2023-12-28T03:36:54;97898.56;;;7.71;93.66
11448;BME280;43755;49.736;8.734;2023-12-28T03:38:55;97892.47;;;7.69;96.57
11448;BME280;43755;49.736;8.734;2023-12-28T03:40:56;97891.78;;;7.64;94.46
11448;BME280;43755;49.736;8.734;2023-12-28T03:42:58;97884.94;;;7.59;95.43
11448;BME280;43755;49.736;8.734;2023-12-28T03:44:59;97892.84;;;7.59;94.42
11448;BME280;43755;49.736;8.734;2023-12-28T03:47:02;97889.34;;;7.58;95.80
11448;BME280;43755;49.736;8.734;2023-12-28T03:49:03;97897.44;;;7.52;95.27
11448;BME280;43755;49.736;8.734;2023-12-28T03:51:04;97894.19;;;7.44;96.09
11448;BME280;43755;49.736;8.734;2023-12-28T03:53:06;97883.75;;;7.41;96.23
11448;BME280;43755;49.736;8.734;2023-12-28T03:55:07;97892.56;;;7.40;98.25
11448;BME280;43755;49.736;8.734;2023-12-28T03:57:09;97898.84;;;7.36;100.00
11448;BME280;43755;49.736;8.734;2023-12-28T03:59:10;97910.97;;;7.40;100.00
11448;BME280;43755;49.736;8.734;2023-12-28T04:01:12;97902.00;;;7.47;100.00
11448;BME280;43755;49.736;8.734;2023-12-28T04:03:14;97910.13;;;7.39;100.00
11448;BME280;43755;49.736;8.734;2023-12-28T04:05:16;97907.91;;;7.26;100.00
11448;BME280;43755;49.736;8.734;2023-12-28T04:07:17;97920.38;;;7.19;100.00
11448;BME280;43755;49.736;8.734;2023-12-28T04:09:19;97918.88;;;7.12;100.00
11448;BME280;43755;49.736;8.734;2023-12-28T04:11:21;97928.66;;;7.07;100.00
11448;BME280;43755;49.736;8.734;2023-12-28T04:13:22;97921.63;;;7.08;100.00
11448;BME280;43755;49.736;8.734;2023-12-28T04:15:24;97933.16;;;7.04;100.00
11448;BME280;43755;49.736;8.734;2023-12-28T04:17:25;97913.13;;;6.99;100.00
11448;BME280;43755;49.736;8.734;2023-12-28T04:19:28;97906.16;;;6.97;100.00
11448;BME280;43755;49.736;8.734;2023-12-28T04:21:29;97906.88;;;7.02;100.00
11448;BME280;43755;49.736;8.734;2023-12-28T04:23:30;97907.00;;;6.99;100.00
11448;BME280;43755;49.736;8.734;2023-12-28T04:25:32;97899.81;;;7.04;100.00
11448;BME280;43755;49.736;8.734;2023-12-28T04:27:33;97897.53;;;6.93;100.00
11448;BME280;43755;49.736;8.734;2023-12-28T04:29:35;97901.94;;;6.91;100.00
11448;BME280;43755;49.736;8.734;2023-12-28T04:31:39;97904.91;;;6.81;100.00
11448;BME280;43755;49.736;8.734;2023-12-28T04:33:40;97909.34;;;6.79;100.00
11448;BME280;43755;49.736;8.734;2023-12-28T04:35:43;97912.06;;;6.76;100.00
11448;BME280;43755;49.736;8.734;2023-12-28T04:37:43;97926.84;;;6.80;100.00
11448;BME280;43755;49.736;8.734;2023-12-28T04:39:45;97921.16;;;6.95;100.00
11448;BME280;43755;49.736;8.734;2023-12-28T04:41:46;97902.53;;;7.01;100.00
11448;BME280;43755;49.736;8.734;2023-12-28T04:43:47;97902.63;;;6.98;100.00
11448;BME280;43755;49.736;8.734;2023-12-28T04:45:49;97910.50;;;6.99;100.00
11448;BME280;43755;49.736;8.734;2023-12-28T04:47:49;97925.97;;;7.09;100.00
11448;BME280;43755;49.736;8.734;2023-12-28T04:49:51;97921.25;;;7.20;100.00
11448;BME280;43755;49.736;8.734;2023-12-28T04:51:52;97927.22;;;7.25;100.00
11448;BME280;43755;49.736;8.734;2023-12-28T04:53:54;97923.81;;;7.23;100.00
11448;BME280;43755;49.736;8.734;2023-12-28T04:55:55;97914.75;;;7.31;100.00
11448;BME280;43755;49.736;8.734;2023-12-28T04:57:57;97914.63;;;7.36;100.00
11448;BME280;43755;49.736;8.734;2023-12-28T04:59:58;97917.06;;;7.42;100.00
11448;BME280;43755;49.736;8.734;2023-12-28T05:01:59;97919.41;;;7.51;100.00
11448;BME280;43755;49.736;8.734;2023-12-28T05:04:01;97911.47;;;7.53;100.00
11448;BME280;43755;49.736;8.734;2023-12-28T05:06:03;97895.72;;;7.51;100.00
11448;BME280;43755;49.736;8.734;2023-12-28T05:08:06;97912.22;;;7.56;100.00
11448;BME280;43755;49.736;8.734;2023-12-28T05:10:08;97923.56;;;7.58;100.00
11448;BME280;43755;49.736;8.734;2023-12-28T05:12:09;97912.91;;;7.61;100.00
11448;BME280;43755;49.736;8.734;2023-12-28T05:14:11;97923.16;;;7.70;100.00
11448;BME280;43755;49.736;8.734;2023-12-28T05:16:12;97927.72;;;7.65;100.00
11448;BME280;43755;49.736;8.734;2023-12-28T05:18:14;97930.16;;;7.71;100.00
11448;BME280;43755;49.736;8.734;2023-12-28T05:20:15;97933.00;;;7.65;100.00
11448;BME280;43755;49.736;8.734;2023-12-28T05:22:17;97931.00;;;7.72;100.00
11448;BME280;43755;49.736;8.734;2023-12-28T05:24:19;97932.13;;;7.65;100.00
11448;BME280;43755;49.736;8.734;2023-12-28T05:26:21;97937.13;;;7.72;100.00
11448;BME280;43755;49.736;8.734;2023-12-28T05:28:23;97947.78;;;7.69;100.00
11448;BME280;43755;49.736;8.734;2023-12-28T05:30:24;97954.97;;;7.64;100.00
11448;BME280;43755;49.736;8.734;2023-12-28T05:32:25;97949.53;;;7.69;100.00
11448;BME280;43755;49.736;8.734;2023-12-28T05:34:27;97940.78;;;7.68;100.00
11448;BME280;43755;49.736;8.734;2023-12-28T05:36:28;97929.38;;;7.68;100.00
11448;BME280;43755;49.736;8.734;2023-12-28T05:38:29;97954.97;;;7.64;100.00
11448;BME280;43755;49.736;8.734;2023-12-28T05:40:32;97961.09;;;7.65;100.00
11448;BME280;43755;49.736;8.734;2023-12-28T05:42:34;97943.53;;;7.65;100.00
11448;BME280;43755;49.736;8.734;2023-12-28T05:44:35;97948.84;;;7.64;100.00
11448;BME280;43755;49.736;8.734;2023-12-28T05:46:35;97951.50;;;7.62;100.00
11448;BME280;43755;49.736;8.734;2023-12-28T05:48:37;97956.91;;;7.58;100.00
11448;BME280;43755;49.736;8.734;2023-12-28T05:50:38;97952.56;;;7.57;100.00
11448;BME280;43755;49.736;8.734;2023-12-28T05:52:40;97944.69;;;7.55;100.00
11448;BME280;43755;49.736;8.734;2023-12-28T05:54:41;97939.44;;;7.55;100.00
11448;BME280;43755;49.736;8.734;2023-12-28T05:56:44;97937.00;;;7.49;100.00
11448;BME280;43755;49.736;8.734;2023-12-28T05:58:46;97930.94;;;7.47;100.00
11448;BME280;43755;49.736;8.734;2023-12-28T06:00:47;97934.53;;;7.45;100.00
11448;BME280;43755;49.736;8.734;2023-12-28T06:02:49;97933.41;;;7.52;100.00
11448;BME280;43755;49.736;8.734;2023-12-28T06:04:51;97940.50;;;7.50;100.00
11448;BME280;43755;49.736;8.734;2023-12-28T06:06:52;97931.66;;;7.52;100.00
11448;BME280;43755;49.736;8.734;2023-12-28T06:08:53;97935.16;;;7.53;100.00
11448;BME280;43755;49.736;8.734;2023-12-28T06:10:55;97934.38;;;7.49;100.00
11448;BME280;43755;49.736;8.734;2023-12-28T06:12:57;97944.03;;;7.49;100.00
11448;BME280;43755;49.736;8.734;2023-12-28T06:14:59;97939.56;;;7.52;100.00
11448;BME280;43755;49.736;8.734;2023-12-28T06:17:01;97942.22;;;7.51;100.00
11448;BME280;43755;49.736;8.734;2023-12-28T06:19:02;97950.03;;;7.54;100.00
11448;BME280;43755;49.736;8.734;2023-12-28T06:21:04;97946.72;;;7.47;100.00
11448;BME280;43755;49.736;8.734;2023-12-28T06:23:06;97946.66;;;7.49;100.00
11448;BME280;43755;49.736;8.734;2023-12-28T06:25:08;97947.63;;;7.46;100.00
11448;BME280;43755;49.736;8.734;2023-12-28T06:27:12;97940.66;;;7.45;100.00
11448;BME280;43755;49.736;8.734;2023-12-28T06:29:14;97945.00;;;7.46;100.00
11448;BME280;43755;49.736;8.734;2023-12-28T06:31:16;97952.91;;;7.46;100.00
11448;BME280;43755;49.736;8.734;2023-12-28T06:33:17;97941.50;;;7.46;100.00
11448;BME280;43755;49.736;8.734;2023-12-28T06:35:18;97941.50;;;7.46;100.00
11448;BME280;43755;49.736;8.734;2023-12-28T06:37:19;97937.88;;;7.50;100.00
11448;BME280;43755;49.736;8.734;2023-12-28T06:39:20;97943.25;;;7.47;100.00
11448;BME280;43755;49.736;8.734;2023-12-28T06:41:22;97945.91;;;7.45;100.00
11448;BME280;43755;49.736;8.734;2023-12-28T06:43:23;97946.66;;;7.49;100.00
11448;BME280;43755;49.736;8.734;2023-12-28T06:45:26;97931.69;;;7.51;100.00
11448;BME280;43755;49.736;8.734;2023-12-28T06:47:28;97937.72;;;7.54;100.00
11448;BME280;43755;49.736;8.734;2023-12-28T06:49:29;97946.41;;;7.58;100.00
11448;BME280;43755;49.736;8.734;2023-12-28T06:51:31;97944.78;;;7.54;100.00
11448;BME280;43755;49.736;8.734;2023-12-28T06:53:33;97942.84;;;7.59;100.00
11448;BME280;43755;49.736;8.734;2023-12-28T06:55:34;97941.22;;;7.55;100.00
11448;BME280;43755;49.736;8.734;2023-12-28T06:57:35;97947.34;;;7.55;100.00
11448;BME280;43755;49.736;8.734;2023-12-28T06:59:37;97954.38;;;7.55;100.00
11448;BME280;43755;49.736;8.734;2023-12-28T07:01:39;97943.06;;;7.53;100.00
11448;BME280;43755;49.736;8.734;2023-12-28T07:03:41;97943.81;;;7.56;100.00
11448;BME280;43755;49.736;8.734;2023-12-28T07:05:41;97943.75;;;7.58;100.00
11448;BME280;43755;49.736;8.734;2023-12-28T07:07:43;97941.13;;;7.58;100.00
11448;BME280;43755;49.736;8.734;2023-12-28T07:09:43;97943.75;;;7.58;100.00
11448;BME280;43755;49.736;8.734;2023-12-28T07:11:45;97934.88;;;7.60;100.00
11448;BME280;43755;49.736;8.734;2023-12-28T07:13:46;97929.72;;;7.57;100.00
11448;BME280;43755;49.736;8.734;2023-12-28T07:15:47;97926.16;;;7.60;100.00
11448;BME280;43755;49.736;8.734;2023-12-28T07:17:50;97931.25;;;7.64;100.00
11448;BME280;43755;49.736;8.734;2023-12-28T07:19:51;97941.72;;;7.66;100.00
11448;BME280;43755;49.736;8.734;2023-12-28T07:21:54;97940.81;;;7.67;100.00
11448;BME280;43755;49.736;8.734;2023-12-28T07:23:55;97947.00;;;7.66;100.00
11448;BME280;43755;49.736;8.734;2023-12-28T07:25:57;97950.50;;;7.66;100.00
11448;BME280;43755;49.736;8.734;2023-12-28T07:27:58;97951.28;;;7.70;100.00
11448;BME280;43755;49.736;8.734;2023-12-28T07:30:00;97948.72;;;7.67;100.00
11448;BME280;43755;49.736;8.734;2023-12-28T07:32:01;97959.13;;;7.71;100.00
11448;BME280;43755;49.736;8.734;2023-12-28T07:34:04;97956.50;;;7.71;100.00
11448;BME280;43755;49.736;8.734;2023-12-28T07:36:06;97969.59;;;7.73;100.00
11448;BME280;43755;49.736;8.734;2023-12-28T07:38:07;97957.25;;;7.75;100.00
11448;BME280;43755;49.736;8.734;2023-12-28T07:40:09;97971.13;;;7.80;100.00
11448;BME280;43755;49.736;8.734;2023-12-28T07:42:09;97966.84;;;7.77;100.00
11448;BME280;43755;49.736;8.734;2023-12-28T07:44:11;97970.25;;;7.79;100.00
11448;BME280;43755;49.736;8.734;2023-12-28T07:46:12;97974.66;;;7.79;100.00
11448;BME280;43755;49.736;8.734;2023-12-28T07:48:14;97965.91;;;7.78;100.00
11448;BME280;43755;49.736;8.734;2023-12-28T07:50:16;97963.06;;;7.85;100.00
11448;BME280;43755;49.736;8.734;2023-12-28T07:52:18;97970.25;;;7.79;100.00
11448;BME280;43755;49.736;8.734;2023-12-28T07:54:19;97979.69;;;7.87;100.00
11448;BME280;43755;49.736;8.734;2023-12-28T07:56:20;97981.41;;;7.88;100.00
11448;BME280;43755;49.736;8.734;2023-12-28T07:58:22;97971.63;;;7.91;100.00
11448;BME280;43755;49.736;8.734;2023-12-28T08:00:23;97982.16;;;7.91;100.00
11448;BME280;43755;49.736;8.734;2023-12-28T08:02:24;97974.22;;;7.93;100.00
11448;BME280;43755;49.736;8.734;2023-12-28T08:04:25;97979.50;;;7.93;100.00
11448;BME280;43755;49.736;8.734;2023-12-28T08:06:28;97973.25;;;7.95;100.00
11448;BME280;43755;49.736;8.734;2023-12-28T08:08:32;97969.66;;;7.98;100.00
11448;BME280;43755;49.736;8.734;2023-12-28T08:10:34;97969.69;;;7.96;100.00
11448;BME280;43755;49.736;8.734;2023-12-28T08:12:35;97975.78;;;7.98;100.00
11448;BME280;43755;49.736;8.734;2023-12-28T08:14:37;97976.69;;;7.97;100.00
11448;BME280;43755;49.736;8.734;2023-12-28T08:16:38;97960.91;;;7.97;100.00
11448;BME280;43755;49.736;8.734;2023-12-28T08:18:40;97975.63;;;8.03;100.00
11448;BME280;43755;49.736;8.734;2023-12-28T08:20:42;97975.59;;;8.04;100.00
11448;BME280;43755;49.736;8.734;2023-12-28T08:22:44;97976.47;;;8.05;100.00
11448;BME280;43755;49.736;8.734;2023-12-28T08:24:46;97977.28;;;8.07;100.00
11448;BME280;43755;49.736;8.734;2023-12-28T08:26:47;97973.66;;;8.09;100.00
11448;BME280;43755;49.736;8.734;2023-12-28T08:28:49;97961.34;;;8.10;100.00
11448;BME280;43755;49.736;8.734;2023-12-28T08:30:50;97965.00;;;8.06;100.00
11448;BME280;43755;49.736;8.734;2023-12-28T08:32:51;97968.50;;;8.06;100.00
11448;BME280;43755;49.736;8.734;2023-12-28T08:34:53;97971.00;;;8.11;100.00
11448;BME280;43755;49.736;8.734;2023-12-28T08:36:54;97963.13;;;8.09;100.00
11448;BME280;43755;49.736;8.734;2023-12-28T08:38:57;97971.78;;;8.13;100.00
11448;BME280;43755;49.736;8.734;2023-12-28T08:40:58;97969.88;;;8.18;100.00
11448;BME280;43755;49.736;8.734;2023-12-28T08:43:00;97967.97;;;8.21;100.00
11448;BME280;43755;49.736;8.734;2023-12-28T08:45:01;97970.63;;;8.21;100.00
11448;BME280;43755;49.736;8.734;2023-12-28T08:47:03;97968.91;;;8.20;100.00
11448;BME280;43755;49.736;8.734;2023-12-28T08:49:05;97966.41;;;8.16;100.00
11448;BME280;43755;49.736;8.734;2023-12-28T08:51:06;97966.25;;;8.20;100.00
11448;BME280;43755;49.736;8.734;2023-12-28T08:53:07;97961.19;;;8.14;100.00
11448;BME280;43755;49.736;8.734;2023-12-28T08:55:10;97955.88;;;8.16;100.00
11448;BME280;43755;49.736;8.734;2023-12-28T08:57:11;97967.25;;;8.18;100.00
11448;BME280;43755;49.736;8.734;2023-12-28T08:59:12;97965.50;;;8.17;100.00
11448;BME280;43755;49.736;8.734;2023-12-28T09:01:17;97967.28;;;8.16;100.00
11448;BME280;43755;49.736;8.734;2023-12-28T09:03:18;97964.72;;;8.13;100.00
11448;BME280;43755;49.736;8.734;2023-12-28T09:05:20;97965.59;;;8.14;100.00
11448;BME280;43755;49.736;8.734;2023-12-28T09:07:21;97969.09;;;8.14;100.00
11448;BME280;43755;49.736;8.734;2023-12-28T09:09:22;97977.91;;;8.13;100.00
11448;BME280;43755;49.736;8.734;2023-12-28T09:11:24;97974.41;;;8.13;100.00
11448;BME280;43755;49.736;8.734;2023-12-28T09:13:27;97977.91;;;8.13;100.00
11448;BME280;43755;49.736;8.734;2023-12-28T09:15:27;97977.00;;;8.14;100.00
11448;BME280;43755;49.736;8.734;2023-12-28T09:17:29;97977.97;;;8.12;100.00
11448;BME280;43755;49.736;8.734;2023-12-28T09:19:30;97966.59;;;8.11;100.00
11448;BME280;43755;49.736;8.734;2023-12-28T09:21:31;97975.44;;;8.09;100.00
11448;BME280;43755;49.736;8.734;2023-12-28T09:23:33;97982.63;;;8.04;100.00
11448;BME280;43755;49.736;8.734;2023-12-28T09:25:35;97981.69;;;8.06;100.00
11448;BME280;43755;49.736;8.734;2023-12-28T09:27:39;97977.31;;;8.05;100.00
11448;BME280;43755;49.736;8.734;2023-12-28T09:29:41;97966.81;;;8.04;100.00
11448;BME280;43755;49.736;8.734;2023-12-28T09:31:42;97968.44;;;8.08;100.00
11448;BME280;43755;49.736;8.734;2023-12-28T09:33:44;97973.72;;;8.08;100.00
11448;BME280;43755;49.736;8.734;2023-12-28T09:35:46;97977.28;;;8.07;100.00
11448;BME280;43755;49.736;8.734;2023-12-28T09:37:47;97975.56;;;8.06;100.00
11448;BME280;43755;49.736;8.734;2023-12-28T09:39:49;97985.19;;;8.07;100.00
11448;BME280;43755;49.736;8.734;2023-12-28T09:41:55;97995.56;;;8.11;100.00
11448;BME280;43755;49.736;8.734;2023-12-28T09:44:08;97982.28;;;8.14;100.00
11448;BME280;43755;49.736;8.734;2023-12-28T09:46:11;98001.69;;;8.12;100.00
11448;BME280;43755;49.736;8.734;2023-12-28T09:48:15;97999.84;;;8.14;100.00
11448;BME280;43755;49.736;8.734;2023-12-28T09:50:17;98010.56;;;8.09;100.00
11448;BME280;43755;49.736;8.734;2023-12-28T09:52:19;98005.94;;;8.16;100.00
11448;BME280;43755;49.736;8.734;2023-12-28T09:54:19;98008.53;;;8.17;100.00
11448;BME280;43755;49.736;8.734;2023-12-28T09:56:21;98022.50;;;8.19;100.00
11448;BME280;43755;49.736;8.734;2023-12-28T09:58:23;98012.03;;;8.18;100.00
11448;BME280;43755;49.736;8.734;2023-12-28T10:00:25;98020.81;;;8.18;100.00
11448;BME280;43755;49.736;8.734;2023-12-28T10:02:27;97999.72;;;8.18;100.00
11448;BME280;43755;49.736;8.734;2023-12-28T10:04:28;98014.50;;;8.22;100.00
11448;BME280;43755;49.736;8.734;2023-12-28T10:06:30;98006.44;;;8.27;100.00
11448;BME280;43755;49.736;8.734;2023-12-28T10:08:31;97999.94;;;8.39;100.00
11448;BME280;43755;49.736;8.734;2023-12-28T10:10:33;98006.06;;;8.39;100.00
11448;BME280;43755;49.736;8.734;2023-12-28T10:12:34;97996.44;;;8.38;100.00
11448;BME280;43755;49.736;8.734;2023-12-28T10:14:36;98004.38;;;8.37;100.00
11448;BME280;43755;49.736;8.734;2023-12-28T10:16:41;98006.19;;;8.36;100.00
11448;BME280;43755;49.736;8.734;2023-12-28T10:18:43;97999.19;;;8.35;100.00
11448;BME280;43755;49.736;8.734;2023-12-28T10:20:49;97992.03;;;8.39;100.00
11448;BME280;43755;49.736;8.734;2023-12-28T10:22:50;97985.19;;;8.33;100.00
11448;BME280;43755;49.736;8.734;2023-12-28T10:24:52;97982.56;;;8.33;100.00
11448;BME280;43755;49.736;8.734;2023-12-28T10:26:52;98003.59;;;8.35;100.00
11448;BME280;43755;49.736;8.734;2023-12-28T10:28:57;97989.56;;;8.34;100.00
11448;BME280;43755;49.736;8.734;2023-12-28T10:30:58;97992.22;;;8.33;100.00
11448;BME280;43755;49.736;8.734;2023-12-28T10:33:04;98000.13;;;8.33;100.00
11448;BME280;43755;49.736;8.734;2023-12-28T10:35:06;98010.63;;;8.34;100.00
11448;BME280;43755;49.736;8.734;2023-12-28T10:37:08;98015.78;;;8.37;100.00
11448;BME280;43755;49.736;8.734;2023-12-28T10:39:11;98007.78;;;8.40;100.00
11448;BME280;43755;49.736;8.734;2023-12-28T10:41:16;98006.78;;;8.44;100.00
11448;BME280;43755;49.736;8.734;2023-12-28T10:43:20;98004.78;;;8.51;100.00
11448;BME280;43755;49.736;8.734;2023-12-28T10:45:25;98005.59;;;8.53;100.00
11448;BME280;43755;49.736;8.734;2023-12-28T10:47:28;98009.91;;;8.55;100.00
11448;BME280;43755;49.736;8.734;2023-12-28T10:49:35;98002.75;;;8.59;100.00